SLM993 EHAM-SMJP
Flight info
| Callsign | SLM993 |
|---|---|
| Flight time | N/A |
| Altitude | 36000 |
| Route | WOODY N872 CIV/N0486F310 N872 MEDIL DCT KOVIN DCT NIDUV DCT KIHVI UN872 ERIGA UN741 AZFIC DCT LOTEE DCT AGADO/N0486F330 DCT GUNTI/M084F320 DCT 3630N02000W/M084F340 32N030W 29N035W 26N040W 22N045W/M084F360 DCT OXODE/N0493F360 DCT 15N050W 0927N05300W 0730N05400W DCT TODOL |
| Aircraft | A346/H-SDE2E3FGHIJ3J4J5M1RWXY/LB1D1 |
Departure
| Time | 2026-05-07 12:39 |
|---|---|
| Airport | Amsterdam Airport Schiphol (EHAM) |
Arrival
| Time | N/A |
|---|---|
| Airport | Johan Adolf Pengel International Airport (SMJP) |
| Time | Latitude | Longitude | Altitude | Speed | Heading |
|---|---|---|---|---|---|
| 2026-05-07 12:00 | 52.31278 | 4.76942 | 2 ft | 0 kts | 304° |
| 2026-05-07 12:03 | 52.31277 | 4.76942 | 8 ft | 0 kts | 304° |
| 2026-05-07 12:23 | 52.31273 | 4.76952 | 8 ft | 3 kts | 304° |
| 2026-05-07 12:23 | 52.31261 | 4.76983 | 9 ft | 3 kts | 304° |
| 2026-05-07 12:23 | 52.31248 | 4.77008 | 9 ft | 3 kts | 321° |
| 2026-05-07 12:23 | 52.31235 | 4.77021 | 9 ft | 3 kts | 354° |
| 2026-05-07 12:24 | 52.31219 | 4.77016 | 8 ft | 3 kts | 28° |
| 2026-05-07 12:24 | 52.31200 | 4.76995 | 9 ft | 3 kts | 36° |
| 2026-05-07 12:24 | 52.31189 | 4.76982 | 10 ft | 0 kts | 33° |
| 2026-05-07 12:29 | 52.31191 | 4.76985 | 9 ft | 2 kts | 33° |
| 2026-05-07 12:29 | 52.31216 | 4.77011 | 9 ft | 7 kts | 33° |
| 2026-05-07 12:29 | 52.31265 | 4.77064 | 7 ft | 10 kts | 33° |
| 2026-05-07 12:29 | 52.31328 | 4.77132 | 7 ft | 12 kts | 33° |
| 2026-05-07 12:30 | 52.31406 | 4.77194 | 7 ft | 13 kts | 10° |
| 2026-05-07 12:30 | 52.31478 | 4.77116 | 7 ft | 14 kts | 288° |
| 2026-05-07 12:30 | 52.31480 | 4.76958 | 7 ft | 13 kts | 267° |
| 2026-05-07 12:30 | 52.31475 | 4.76835 | 7 ft | 9 kts | 266° |
| 2026-05-07 12:31 | 52.31472 | 4.76757 | 7 ft | 5 kts | 266° |
| 2026-05-07 12:31 | 52.31470 | 4.76697 | 7 ft | 9 kts | 266° |
| 2026-05-07 12:31 | 52.31465 | 4.76559 | 7 ft | 15 kts | 266° |
| 2026-05-07 12:31 | 52.31458 | 4.76394 | 7 ft | 14 kts | 266° |
| 2026-05-07 12:32 | 52.31452 | 4.76245 | 7 ft | 12 kts | 265° |
| 2026-05-07 12:32 | 52.31445 | 4.76115 | 7 ft | 10 kts | 265° |
| 2026-05-07 12:32 | 52.31440 | 4.76010 | 7 ft | 9 kts | 267° |
| 2026-05-07 12:32 | 52.31436 | 4.75861 | 7 ft | 17 kts | 269° |
| 2026-05-07 12:33 | 52.31423 | 4.75453 | 7 ft | 18 kts | 266° |
| 2026-05-07 12:33 | 52.31418 | 4.75252 | 7 ft | 18 kts | 268° |
| 2026-05-07 12:33 | 52.31410 | 4.75040 | 7 ft | 17 kts | 265° |
| 2026-05-07 12:34 | 52.31404 | 4.74861 | 7 ft | 14 kts | 267° |
| 2026-05-07 12:34 | 52.31399 | 4.74708 | 7 ft | 14 kts | 266° |
| 2026-05-07 12:34 | 52.31393 | 4.74526 | 7 ft | 17 kts | 267° |
| 2026-05-07 12:34 | 52.31389 | 4.74403 | 7 ft | 15 kts | 265° |
| 2026-05-07 12:35 | 52.31336 | 4.74287 | 7 ft | 14 kts | 200° |
| 2026-05-07 12:35 | 52.31238 | 4.74275 | 7 ft | 14 kts | 185° |
| 2026-05-07 12:35 | 52.31138 | 4.74260 | 7 ft | 15 kts | 185° |
| 2026-05-07 12:35 | 52.30994 | 4.74244 | 7 ft | 15 kts | 182° |
| 2026-05-07 12:36 | 52.30946 | 4.74232 | 7 ft | 9 kts | 202° |
| 2026-05-07 12:36 | 52.30914 | 4.74177 | 7 ft | 6 kts | 240° |
| 2026-05-07 12:36 | 52.30892 | 4.74121 | 7 ft | 5 kts | 224° |
| 2026-05-07 12:36 | 52.30828 | 4.74091 | 7 ft | 15 kts | 186° |
| 2026-05-07 12:37 | 52.30697 | 4.74075 | 7 ft | 20 kts | 182° |
| 2026-05-07 12:37 | 52.30558 | 4.74066 | 7 ft | 20 kts | 182° |
| 2026-05-07 12:37 | 52.30419 | 4.74048 | 7 ft | 20 kts | 188° |
| 2026-05-07 12:37 | 52.30282 | 4.73988 | 7 ft | 21 kts | 207° |
| 2026-05-07 12:38 | 52.30197 | 4.73820 | 6 ft | 19 kts | 284° |
| 2026-05-07 12:38 | 52.30296 | 4.73749 | 4 ft | 17 kts | 358° |
| 2026-05-07 12:38 | 52.30413 | 4.73760 | 5 ft | 16 kts | 3° |
| 2026-05-07 12:38 | 52.30569 | 4.73771 | 5 ft | 41 kts | 2° |
| 2026-05-07 12:39 | 52.31075 | 4.73816 | 8 ft | 102 kts | 3° |
| 2026-05-07 12:39 | 52.31971 | 4.73902 | 7 ft | 154 kts | 4° |
| 2026-05-07 12:39 | 52.33158 | 4.74023 | 168 ft | 182 kts | 5° |
| 2026-05-07 12:39 | 52.34434 | 4.74174 | 676 ft | 184 kts | 5° |
| 2026-05-07 12:40 | 52.35710 | 4.74303 | 1294 ft | 183 kts | 5° |
| 2026-05-07 12:40 | 52.36885 | 4.75029 | 1816 ft | 183 kts | 34° |
| 2026-05-07 12:40 | 52.37727 | 4.76581 | 2323 ft | 187 kts | 68° |
| 2026-05-07 12:40 | 52.37815 | 4.78685 | 2797 ft | 193 kts | 101° |
| 2026-05-07 12:41 | 52.37430 | 4.80878 | 3095 ft | 205 kts | 105° |
| 2026-05-07 12:41 | 52.36878 | 4.83095 | 3356 ft | 219 kts | 124° |
| 2026-05-07 12:41 | 52.35686 | 4.84755 | 3607 ft | 235 kts | 156° |
| 2026-05-07 12:41 | 52.34034 | 4.85223 | 3886 ft | 251 kts | 181° |
| 2026-05-07 12:42 | 52.32236 | 4.85106 | 4264 ft | 265 kts | 183° |
| 2026-05-07 12:42 | 52.30370 | 4.84966 | 4922 ft | 269 kts | 182° |
| 2026-05-07 12:42 | 52.28489 | 4.84870 | 5690 ft | 269 kts | 181° |
| 2026-05-07 12:42 | 52.26618 | 4.84807 | 6467 ft | 271 kts | 181° |
| 2026-05-07 12:43 | 52.24714 | 4.84760 | 7180 ft | 273 kts | 181° |
| 2026-05-07 12:43 | 52.22808 | 4.84719 | 7901 ft | 275 kts | 181° |
| 2026-05-07 12:43 | 52.20880 | 4.84678 | 8641 ft | 278 kts | 181° |
| 2026-05-07 12:43 | 52.18942 | 4.84637 | 9373 ft | 280 kts | 181° |
| 2026-05-07 12:44 | 52.16980 | 4.84596 | 10125 ft | 283 kts | 181° |
| 2026-05-07 12:44 | 52.14975 | 4.84553 | 10643 ft | 294 kts | 181° |
| 2026-05-07 12:44 | 52.12871 | 4.84509 | 10964 ft | 311 kts | 181° |
| 2026-05-07 12:44 | 52.10678 | 4.84461 | 11272 ft | 327 kts | 181° |
| 2026-05-07 12:45 | 52.08345 | 4.84411 | 11575 ft | 344 kts | 181° |
| 2026-05-07 12:45 | 52.05890 | 4.84358 | 11879 ft | 360 kts | 181° |
| 2026-05-07 12:45 | 52.03336 | 4.84074 | 12195 ft | 375 kts | 189° |
| 2026-05-07 12:45 | 52.00783 | 4.83077 | 12798 ft | 380 kts | 199° |
| 2026-05-07 12:46 | 51.98344 | 4.81429 | 13538 ft | 382 kts | 206° |
| 2026-05-07 12:46 | 51.95932 | 4.79540 | 14199 ft | 386 kts | 207° |
| 2026-05-07 12:46 | 51.93505 | 4.77610 | 14807 ft | 390 kts | 207° |
| 2026-05-07 12:46 | 51.91042 | 4.75662 | 15441 ft | 394 kts | 206° |
| 2026-05-07 12:47 | 51.88563 | 4.73716 | 16073 ft | 397 kts | 206° |
| 2026-05-07 12:47 | 51.86063 | 4.71759 | 16689 ft | 400 kts | 206° |
| 2026-05-07 12:47 | 51.83539 | 4.69787 | 17299 ft | 404 kts | 206° |
| 2026-05-07 12:47 | 51.80993 | 4.67803 | 17923 ft | 407 kts | 206° |
| 2026-05-07 12:48 | 51.78463 | 4.65835 | 18495 ft | 411 kts | 206° |
| 2026-05-07 12:48 | 51.75877 | 4.63825 | 19018 ft | 414 kts | 206° |
| 2026-05-07 12:48 | 51.73274 | 4.61804 | 19532 ft | 417 kts | 206° |
| 2026-05-07 12:48 | 51.70647 | 4.59768 | 20079 ft | 419 kts | 206° |
| 2026-05-07 12:49 | 51.67990 | 4.57710 | 20610 ft | 422 kts | 206° |
| 2026-05-07 12:49 | 51.65333 | 4.55654 | 21148 ft | 425 kts | 206° |
| 2026-05-07 12:49 | 51.62659 | 4.53588 | 21653 ft | 427 kts | 206° |
| 2026-05-07 12:49 | 51.59970 | 4.51514 | 22184 ft | 430 kts | 206° |
| 2026-05-07 12:50 | 51.57257 | 4.49423 | 22686 ft | 433 kts | 206° |
| 2026-05-07 12:50 | 51.54526 | 4.47323 | 23203 ft | 436 kts | 206° |
| 2026-05-07 12:50 | 51.51780 | 4.45214 | 23705 ft | 438 kts | 206° |
| 2026-05-07 12:50 | 51.49046 | 4.43117 | 24110 ft | 441 kts | 206° |
| 2026-05-07 12:51 | 51.46271 | 4.40992 | 24521 ft | 443 kts | 206° |
| 2026-05-07 12:51 | 51.43471 | 4.38850 | 24938 ft | 446 kts | 206° |
| 2026-05-07 12:51 | 51.40669 | 4.36711 | 25367 ft | 448 kts | 206° |
| 2026-05-07 12:51 | 51.37841 | 4.34556 | 25763 ft | 450 kts | 206° |
| 2026-05-07 12:52 | 51.34992 | 4.32391 | 26175 ft | 452 kts | 206° |
| 2026-05-07 12:52 | 51.32144 | 4.30230 | 26573 ft | 454 kts | 206° |
| 2026-05-07 12:52 | 51.29261 | 4.28041 | 26968 ft | 457 kts | 206° |
| 2026-05-07 12:52 | 51.26384 | 4.25856 | 27352 ft | 459 kts | 206° |
| 2026-05-07 12:53 | 51.23532 | 4.23693 | 27743 ft | 461 kts | 206° |
| 2026-05-07 12:53 | 51.20584 | 4.21460 | 28125 ft | 463 kts | 206° |
| 2026-05-07 12:53 | 51.17630 | 4.19295 | 28529 ft | 465 kts | 204° |
| 2026-05-07 12:53 | 51.14628 | 4.17374 | 29076 ft | 464 kts | 201° |
| 2026-05-07 12:54 | 51.11624 | 4.15708 | 29658 ft | 462 kts | 200° |
| 2026-05-07 12:54 | 51.08592 | 4.14052 | 30216 ft | 460 kts | 200° |
| 2026-05-07 12:54 | 51.05566 | 4.12388 | 30672 ft | 458 kts | 200° |
| 2026-05-07 12:54 | 51.02556 | 4.10735 | 31088 ft | 458 kts | 200° |
| 2026-05-07 12:55 | 50.99540 | 4.09082 | 31498 ft | 457 kts | 200° |
| 2026-05-07 12:55 | 50.96533 | 4.07439 | 31925 ft | 456 kts | 200° |
| 2026-05-07 12:55 | 50.93538 | 4.05807 | 32343 ft | 455 kts | 200° |
| 2026-05-07 12:55 | 50.90541 | 4.04175 | 32750 ft | 454 kts | 200° |
| 2026-05-07 12:56 | 50.87570 | 4.02483 | 33152 ft | 453 kts | 202° |
| 2026-05-07 12:56 | 50.84650 | 4.00583 | 33552 ft | 452 kts | 204° |
| 2026-05-07 12:56 | 50.81751 | 3.98671 | 33954 ft | 451 kts | 204° |
| 2026-05-07 12:56 | 50.78859 | 3.96777 | 34299 ft | 450 kts | 204° |
| 2026-05-07 12:57 | 50.75964 | 3.94883 | 34606 ft | 450 kts | 204° |
| 2026-05-07 12:57 | 50.73073 | 3.92992 | 34882 ft | 450 kts | 204° |
| 2026-05-07 12:57 | 50.70181 | 3.91099 | 35130 ft | 450 kts | 204° |
| 2026-05-07 12:57 | 50.67286 | 3.89206 | 35373 ft | 451 kts | 204° |
| 2026-05-07 12:58 | 50.64383 | 3.87310 | 35579 ft | 452 kts | 204° |
| 2026-05-07 12:58 | 50.61496 | 3.85427 | 35779 ft | 454 kts | 204° |
| 2026-05-07 12:58 | 50.58565 | 3.83520 | 35970 ft | 455 kts | 204° |
| 2026-05-07 12:58 | 50.55644 | 3.81612 | 36147 ft | 456 kts | 204° |
| 2026-05-07 12:59 | 50.52706 | 3.79670 | 36339 ft | 457 kts | 204° |
| 2026-05-07 12:59 | 50.49766 | 3.77722 | 36514 ft | 458 kts | 204° |
| 2026-05-07 12:59 | 50.46806 | 3.75763 | 36691 ft | 459 kts | 204° |
| 2026-05-07 12:59 | 50.43853 | 3.73813 | 36850 ft | 461 kts | 204° |
| 2026-05-07 13:00 | 50.40886 | 3.71858 | 37012 ft | 462 kts | 204° |
| 2026-05-07 13:00 | 50.37914 | 3.69904 | 37053 ft | 463 kts | 204° |
| 2026-05-07 13:00 | 50.31999 | 3.66004 | 37060 ft | 464 kts | 204° |
| 2026-05-07 13:01 | 50.26076 | 3.62000 | 37061 ft | 463 kts | 204° |
| 2026-05-07 13:01 | 50.20154 | 3.58000 | 37064 ft | 463 kts | 204° |
| 2026-05-07 13:02 | 50.14233 | 3.54019 | 37062 ft | 463 kts | 204° |
| 2026-05-07 13:02 | 50.08304 | 3.50046 | 37063 ft | 463 kts | 204° |
| 2026-05-07 13:03 | 50.02416 | 3.46112 | 37060 ft | 463 kts | 204° |
| 2026-05-07 13:03 | 49.96492 | 3.42163 | 37060 ft | 463 kts | 204° |
| 2026-05-07 13:04 | 49.90564 | 3.38224 | 37062 ft | 463 kts | 204° |
| 2026-05-07 13:04 | 49.84632 | 3.34293 | 37058 ft | 463 kts | 204° |
| 2026-05-07 13:05 | 49.78702 | 3.30370 | 37068 ft | 463 kts | 204° |
| 2026-05-07 13:05 | 49.72779 | 3.26463 | 37057 ft | 463 kts | 204° |
| 2026-05-07 13:06 | 49.66837 | 3.22555 | 37062 ft | 463 kts | 204° |
| 2026-05-07 13:06 | 49.60901 | 3.18664 | 37076 ft | 463 kts | 204° |
| 2026-05-07 13:07 | 49.55125 | 3.14429 | 37059 ft | 462 kts | 212° |
| 2026-05-07 13:07 | 49.49933 | 3.08656 | 37078 ft | 460 kts | 223° |
| 2026-05-07 13:08 | 49.45557 | 3.01488 | 37057 ft | 459 kts | 233° |
| 2026-05-07 13:08 | 49.42100 | 2.93244 | 37077 ft | 458 kts | 240° |
| 2026-05-07 13:09 | 49.38945 | 2.84710 | 37064 ft | 459 kts | 240° |
| 2026-05-07 13:09 | 49.35785 | 2.76204 | 37052 ft | 459 kts | 240° |
| 2026-05-07 13:10 | 49.32668 | 2.67656 | 37065 ft | 458 kts | 242° |
| 2026-05-07 13:10 | 49.29646 | 2.58990 | 37057 ft | 458 kts | 242° |
| 2026-05-07 13:11 | 49.26627 | 2.50387 | 37055 ft | 458 kts | 242° |
| 2026-05-07 13:11 | 49.23584 | 2.41779 | 37057 ft | 458 kts | 242° |
| 2026-05-07 13:12 | 49.20534 | 2.33194 | 37048 ft | 458 kts | 242° |
| 2026-05-07 13:12 | 49.17436 | 2.24669 | 37051 ft | 458 kts | 240° |
| 2026-05-07 13:13 | 49.14290 | 2.16187 | 37048 ft | 458 kts | 240° |
| 2026-05-07 13:13 | 49.11155 | 2.07741 | 37048 ft | 458 kts | 240° |
| 2026-05-07 13:14 | 49.08258 | 1.99066 | 37052 ft | 458 kts | 245° |
| 2026-05-07 13:14 | 49.05605 | 1.90230 | 37042 ft | 458 kts | 245° |
| 2026-05-07 13:15 | 49.02942 | 1.81392 | 37050 ft | 458 kts | 245° |
| 2026-05-07 13:15 | 49.00278 | 1.72571 | 37050 ft | 458 kts | 245° |
| 2026-05-07 13:16 | 48.97604 | 1.63756 | 37051 ft | 458 kts | 245° |
| 2026-05-07 13:16 | 48.94918 | 1.54939 | 37051 ft | 458 kts | 245° |
| 2026-05-07 13:17 | 48.92229 | 1.46146 | 37054 ft | 458 kts | 245° |
| 2026-05-07 13:17 | 48.89529 | 1.37350 | 37039 ft | 458 kts | 245° |
| 2026-05-07 13:18 | 48.86844 | 1.28635 | 37045 ft | 458 kts | 245° |
| 2026-05-07 13:18 | 48.84135 | 1.19874 | 37047 ft | 457 kts | 245° |
| 2026-05-07 13:19 | 48.81417 | 1.11120 | 37052 ft | 457 kts | 245° |
| 2026-05-07 13:19 | 48.78692 | 1.02372 | 37042 ft | 457 kts | 245° |
| 2026-05-07 13:20 | 48.75960 | 0.93635 | 37047 ft | 457 kts | 244° |
| 2026-05-07 13:20 | 48.72954 | 0.85130 | 37041 ft | 457 kts | 239° |
| 2026-05-07 13:21 | 48.70189 | 0.78289 | 37044 ft | 457 kts | 239° |
| 2026-05-07 13:21 | 48.66319 | 0.68735 | 37038 ft | 457 kts | 239° |
| 2026-05-07 13:22 | 48.62978 | 0.60519 | 37038 ft | 457 kts | 238° |
| 2026-05-07 13:22 | 48.60177 | 0.53653 | 37037 ft | 457 kts | 238° |
| 2026-05-07 13:23 | 48.56854 | 0.45530 | 37039 ft | 457 kts | 238° |
| 2026-05-07 13:23 | 48.53499 | 0.37355 | 37035 ft | 457 kts | 238° |
| 2026-05-07 13:24 | 48.50142 | 0.29200 | 37029 ft | 457 kts | 238° |
| 2026-05-07 13:24 | 48.46775 | 0.21045 | 37029 ft | 457 kts | 238° |
| 2026-05-07 13:25 | 48.43405 | 0.12911 | 37024 ft | 457 kts | 238° |
| 2026-05-07 13:25 | 48.40031 | 0.04794 | 37029 ft | 457 kts | 238° |
| 2026-05-07 13:26 | 48.36628 | -0.03302 | 37023 ft | 457 kts | 236° |
| 2026-05-07 13:26 | 48.32895 | -0.11059 | 37026 ft | 457 kts | 233° |
| 2026-05-07 13:27 | 48.29096 | -0.18733 | 37021 ft | 457 kts | 233° |
| 2026-05-07 13:27 | 48.25291 | -0.26386 | 37027 ft | 457 kts | 233° |
| 2026-05-07 13:28 | 48.21452 | -0.33937 | 37019 ft | 457 kts | 233° |
| 2026-05-07 13:28 | 48.17577 | -0.41508 | 37024 ft | 457 kts | 233° |
| 2026-05-07 13:29 | 48.13701 | -0.49067 | 37020 ft | 457 kts | 233° |
| 2026-05-07 13:29 | 48.09820 | -0.56617 | 37018 ft | 457 kts | 232° |
| 2026-05-07 13:30 | 48.05934 | -0.64157 | 37019 ft | 457 kts | 232° |
| 2026-05-07 13:30 | 48.02048 | -0.71677 | 37019 ft | 457 kts | 232° |
| 2026-05-07 13:31 | 47.98156 | -0.79187 | 37021 ft | 456 kts | 232° |
| 2026-05-07 13:31 | 47.94263 | -0.86676 | 37019 ft | 456 kts | 232° |
| 2026-05-07 13:32 | 47.90383 | -0.94122 | 37018 ft | 456 kts | 232° |
| 2026-05-07 13:32 | 47.86480 | -1.01590 | 37015 ft | 456 kts | 232° |
| 2026-05-07 13:33 | 47.82575 | -1.09043 | 37006 ft | 456 kts | 232° |
| 2026-05-07 13:33 | 47.78661 | -1.16493 | 37005 ft | 456 kts | 232° |
| 2026-05-07 13:34 | 47.72794 | -1.27618 | 37005 ft | 455 kts | 232° |
| 2026-05-07 13:35 | 47.68899 | -1.34979 | 37001 ft | 455 kts | 232° |
| 2026-05-07 13:35 | 47.64978 | -1.42367 | 36999 ft | 455 kts | 232° |
| 2026-05-07 13:36 | 47.61049 | -1.49747 | 36997 ft | 455 kts | 231° |
| 2026-05-07 13:36 | 47.56897 | -1.56839 | 36990 ft | 455 kts | 228° |
| 2026-05-07 13:37 | 47.52668 | -1.63816 | 36987 ft | 455 kts | 228° |
| 2026-05-07 13:37 | 47.48431 | -1.70783 | 36990 ft | 455 kts | 228° |
| 2026-05-07 13:38 | 47.44187 | -1.77734 | 36993 ft | 455 kts | 228° |
| 2026-05-07 13:38 | 47.39951 | -1.84608 | 36991 ft | 454 kts | 226° |
| 2026-05-07 13:39 | 47.35361 | -1.91036 | 36996 ft | 455 kts | 221° |
| 2026-05-07 13:39 | 47.30356 | -1.96741 | 36992 ft | 455 kts | 215° |
| 2026-05-07 13:40 | 47.25009 | -2.01714 | 36996 ft | 455 kts | 212° |
| 2026-05-07 13:40 | 47.19587 | -2.06564 | 36991 ft | 455 kts | 212° |
| 2026-05-07 13:41 | 47.14176 | -2.11397 | 36993 ft | 455 kts | 212° |
| 2026-05-07 13:41 | 47.08760 | -2.16216 | 36996 ft | 455 kts | 212° |
| 2026-05-07 13:42 | 47.03344 | -2.21020 | 36999 ft | 455 kts | 212° |
| 2026-05-07 13:42 | 46.97927 | -2.25813 | 37003 ft | 455 kts | 212° |
| 2026-05-07 13:43 | 46.92626 | -2.30752 | 37004 ft | 454 kts | 217° |
| 2026-05-07 13:43 | 46.87778 | -2.36703 | 37004 ft | 454 kts | 224° |
| 2026-05-07 13:44 | 46.83569 | -2.43610 | 37002 ft | 455 kts | 232° |
| 2026-05-07 13:44 | 46.80094 | -2.51288 | 37003 ft | 456 kts | 239° |
| 2026-05-07 13:45 | 46.76916 | -2.59314 | 37008 ft | 456 kts | 239° |
| 2026-05-07 13:45 | 46.73744 | -2.67330 | 37004 ft | 456 kts | 239° |
| 2026-05-07 13:46 | 46.70562 | -2.75339 | 37002 ft | 456 kts | 239° |
| 2026-05-07 13:46 | 46.67372 | -2.83342 | 37001 ft | 456 kts | 239° |
| 2026-05-07 13:47 | 46.64177 | -2.91331 | 37001 ft | 456 kts | 239° |
| 2026-05-07 13:47 | 46.60973 | -2.99318 | 37001 ft | 456 kts | 239° |
| 2026-05-07 13:48 | 46.57546 | -3.07076 | 36999 ft | 456 kts | 233° |
| 2026-05-07 13:48 | 46.53597 | -3.14291 | 36999 ft | 455 kts | 228° |
| 2026-05-07 13:49 | 46.49238 | -3.20977 | 36999 ft | 455 kts | 226° |
| 2026-05-07 13:49 | 46.44843 | -3.27593 | 36998 ft | 455 kts | 226° |
| 2026-05-07 13:50 | 46.40471 | -3.34159 | 36999 ft | 455 kts | 226° |
| 2026-05-07 13:50 | 46.36054 | -3.40772 | 36999 ft | 455 kts | 226° |
| 2026-05-07 13:51 | 46.31636 | -3.47367 | 36995 ft | 455 kts | 226° |
| 2026-05-07 13:51 | 46.27215 | -3.53950 | 36994 ft | 455 kts | 226° |
| 2026-05-07 13:52 | 46.22797 | -3.60513 | 36991 ft | 455 kts | 226° |
| 2026-05-07 13:52 | 46.18397 | -3.67032 | 36992 ft | 456 kts | 226° |
| 2026-05-07 13:53 | 46.13961 | -3.73588 | 36994 ft | 456 kts | 225° |
| 2026-05-07 13:53 | 46.09521 | -3.80134 | 36993 ft | 456 kts | 225° |
| 2026-05-07 13:54 | 46.05079 | -3.86669 | 36991 ft | 456 kts | 225° |
| 2026-05-07 13:54 | 46.00624 | -3.93204 | 36990 ft | 456 kts | 225° |
| 2026-05-07 13:55 | 45.96172 | -3.99721 | 36983 ft | 456 kts | 225° |
| 2026-05-07 13:55 | 45.91706 | -4.06241 | 36987 ft | 457 kts | 225° |
| 2026-05-07 13:56 | 45.87240 | -4.12747 | 36987 ft | 457 kts | 225° |
| 2026-05-07 13:56 | 45.82795 | -4.19205 | 36981 ft | 457 kts | 225° |
| 2026-05-07 13:57 | 45.78312 | -4.25702 | 36987 ft | 458 kts | 225° |
| 2026-05-07 13:57 | 45.73828 | -4.32186 | 36981 ft | 458 kts | 225° |
| 2026-05-07 13:58 | 45.69332 | -4.38672 | 36981 ft | 458 kts | 225° |
| 2026-05-07 13:58 | 45.64830 | -4.45149 | 36980 ft | 458 kts | 225° |
| 2026-05-07 13:59 | 45.60356 | -4.51571 | 36981 ft | 459 kts | 225° |
| 2026-05-07 13:59 | 45.55837 | -4.58042 | 36974 ft | 459 kts | 225° |
| 2026-05-07 14:00 | 45.51325 | -4.64488 | 36974 ft | 459 kts | 225° |
| 2026-05-07 14:00 | 45.46804 | -4.70932 | 36970 ft | 459 kts | 225° |
| 2026-05-07 14:01 | 45.42273 | -4.77374 | 36971 ft | 459 kts | 225° |
| 2026-05-07 14:01 | 45.37742 | -4.83799 | 36975 ft | 460 kts | 225° |
| 2026-05-07 14:02 | 45.33197 | -4.90229 | 36968 ft | 460 kts | 225° |
| 2026-05-07 14:02 | 45.28686 | -4.96597 | 36966 ft | 460 kts | 225° |
| 2026-05-07 14:03 | 45.24125 | -5.03018 | 36964 ft | 460 kts | 225° |
| 2026-05-07 14:03 | 45.19567 | -5.09421 | 36961 ft | 461 kts | 225° |
| 2026-05-07 14:04 | 45.15011 | -5.15806 | 36963 ft | 461 kts | 225° |
| 2026-05-07 14:04 | 45.10440 | -5.22197 | 36956 ft | 461 kts | 226° |
| 2026-05-07 14:05 | 45.05895 | -5.28532 | 36951 ft | 461 kts | 225° |
| 2026-05-07 14:05 | 45.01313 | -5.34903 | 36953 ft | 461 kts | 225° |
| 2026-05-07 14:06 | 44.96729 | -5.41261 | 36953 ft | 462 kts | 226° |
| 2026-05-07 14:06 | 44.92138 | -5.47617 | 36950 ft | 462 kts | 226° |
| 2026-05-07 14:07 | 44.87538 | -5.53972 | 36946 ft | 462 kts | 226° |
| 2026-05-07 14:07 | 44.82937 | -5.60312 | 36948 ft | 462 kts | 226° |
| 2026-05-07 14:08 | 44.78326 | -5.66653 | 36939 ft | 463 kts | 226° |
| 2026-05-07 14:08 | 44.73699 | -5.72997 | 36935 ft | 463 kts | 226° |
| 2026-05-07 14:09 | 44.69856 | -5.78256 | 36933 ft | 464 kts | 226° |
| 2026-05-07 14:09 | 44.64364 | -5.85471 | 36929 ft | 465 kts | 222° |
| 2026-05-07 14:10 | 44.60204 | -5.90365 | 36928 ft | 465 kts | 222° |
| 2026-05-07 14:10 | 44.54437 | -5.97149 | 36927 ft | 465 kts | 222° |
| 2026-05-07 14:11 | 44.50271 | -6.02036 | 36926 ft | 466 kts | 222° |
| 2026-05-07 14:11 | 44.45324 | -6.07823 | 36923 ft | 466 kts | 222° |
| 2026-05-07 14:12 | 44.40337 | -6.13643 | 36920 ft | 466 kts | 222° |
| 2026-05-07 14:12 | 44.35347 | -6.19454 | 36919 ft | 467 kts | 222° |
| 2026-05-07 14:13 | 44.30342 | -6.25267 | 36918 ft | 467 kts | 222° |
| 2026-05-07 14:13 | 44.25333 | -6.31073 | 36914 ft | 468 kts | 222° |
| 2026-05-07 14:14 | 44.20322 | -6.36866 | 36925 ft | 468 kts | 222° |
| 2026-05-07 14:14 | 44.15301 | -6.42659 | 36900 ft | 468 kts | 222° |
| 2026-05-07 14:15 | 44.10317 | -6.48396 | 36903 ft | 468 kts | 222° |
| 2026-05-07 14:15 | 44.05292 | -6.54166 | 36915 ft | 468 kts | 222° |
| 2026-05-07 14:16 | 44.00258 | -6.59934 | 36907 ft | 468 kts | 222° |
| 2026-05-07 14:16 | 43.95231 | -6.65680 | 36900 ft | 468 kts | 222° |
| 2026-05-07 14:17 | 43.90192 | -6.71427 | 36902 ft | 468 kts | 222° |
| 2026-05-07 14:17 | 43.85155 | -6.77158 | 36899 ft | 468 kts | 222° |
| 2026-05-07 14:18 | 43.80122 | -6.82875 | 36895 ft | 467 kts | 222° |
| 2026-05-07 14:18 | 43.75123 | -6.88538 | 36897 ft | 467 kts | 222° |
| 2026-05-07 14:19 | 43.70091 | -6.94226 | 36893 ft | 467 kts | 222° |
| 2026-05-07 14:19 | 43.65040 | -6.99923 | 36894 ft | 466 kts | 222° |
| 2026-05-07 14:20 | 43.60003 | -7.05591 | 36884 ft | 466 kts | 222° |
| 2026-05-07 14:20 | 43.54966 | -7.11246 | 36892 ft | 466 kts | 222° |
| 2026-05-07 14:21 | 43.49937 | -7.16879 | 36882 ft | 465 kts | 222° |
| 2026-05-07 14:21 | 43.44908 | -7.22500 | 36884 ft | 465 kts | 222° |
| 2026-05-07 14:22 | 43.39909 | -7.28077 | 36878 ft | 465 kts | 222° |
| 2026-05-07 14:22 | 43.34864 | -7.33691 | 36870 ft | 465 kts | 222° |
| 2026-05-07 14:23 | 43.29830 | -7.39281 | 36872 ft | 465 kts | 222° |
| 2026-05-07 14:23 | 43.24793 | -7.44862 | 36869 ft | 465 kts | 222° |
| 2026-05-07 14:24 | 43.19752 | -7.50437 | 36864 ft | 465 kts | 222° |
| 2026-05-07 14:24 | 43.14710 | -7.55999 | 36860 ft | 465 kts | 222° |
| 2026-05-07 14:25 | 43.09694 | -7.61520 | 36854 ft | 465 kts | 222° |
| 2026-05-07 14:25 | 43.04649 | -7.67062 | 36858 ft | 464 kts | 222° |
| 2026-05-07 14:26 | 42.99606 | -7.72589 | 36855 ft | 464 kts | 222° |
| 2026-05-07 14:26 | 42.94561 | -7.78106 | 36860 ft | 464 kts | 222° |
| 2026-05-07 14:27 | 42.89520 | -7.83607 | 36860 ft | 463 kts | 222° |
| 2026-05-07 14:27 | 42.84483 | -7.89092 | 36864 ft | 463 kts | 223° |
| 2026-05-07 14:28 | 42.79454 | -7.94557 | 36865 ft | 462 kts | 223° |
| 2026-05-07 14:28 | 42.74454 | -7.99978 | 36865 ft | 461 kts | 223° |
| 2026-05-07 14:29 | 42.69428 | -8.05416 | 36864 ft | 461 kts | 223° |
| 2026-05-07 14:29 | 42.64413 | -8.10831 | 36863 ft | 459 kts | 223° |
| 2026-05-07 14:30 | 42.59403 | -8.16228 | 36865 ft | 458 kts | 223° |
| 2026-05-07 14:30 | 42.54409 | -8.21597 | 36866 ft | 457 kts | 223° |
| 2026-05-07 14:31 | 42.49429 | -8.26940 | 36865 ft | 456 kts | 223° |
| 2026-05-07 14:31 | 42.44452 | -8.32269 | 36869 ft | 455 kts | 223° |
| 2026-05-07 14:32 | 42.39519 | -8.37542 | 36875 ft | 454 kts | 223° |
| 2026-05-07 14:32 | 42.34559 | -8.42831 | 36875 ft | 453 kts | 223° |
| 2026-05-07 14:33 | 42.29599 | -8.48109 | 36877 ft | 453 kts | 223° |
| 2026-05-07 14:33 | 42.24643 | -8.53370 | 36886 ft | 452 kts | 223° |
| 2026-05-07 14:34 | 42.19696 | -8.58613 | 36876 ft | 452 kts | 223° |
| 2026-05-07 14:34 | 42.14752 | -8.63841 | 36882 ft | 451 kts | 223° |
| 2026-05-07 14:35 | 42.09816 | -8.69048 | 36873 ft | 450 kts | 223° |
| 2026-05-07 14:35 | 42.04880 | -8.74246 | 36871 ft | 449 kts | 223° |
| 2026-05-07 14:36 | 41.99949 | -8.79425 | 36874 ft | 449 kts | 223° |
| 2026-05-07 14:36 | 41.95052 | -8.84581 | 36878 ft | 448 kts | 224° |
| 2026-05-07 14:37 | 41.90457 | -8.90188 | 36878 ft | 444 kts | 230° |
| 2026-05-07 14:37 | 41.84559 | -8.99677 | 36888 ft | 439 kts | 238° |
| 2026-05-07 14:38 | 41.81322 | -9.06602 | 36892 ft | 437 kts | 243° |
| 2026-05-07 14:38 | 41.78283 | -9.13656 | 36891 ft | 437 kts | 243° |
| 2026-05-07 14:39 | 41.75236 | -9.20719 | 36891 ft | 437 kts | 243° |
| 2026-05-07 14:39 | 41.72184 | -9.27777 | 36890 ft | 437 kts | 243° |
| 2026-05-07 14:40 | 41.69153 | -9.34777 | 36886 ft | 437 kts | 243° |
| 2026-05-07 14:40 | 41.66098 | -9.41815 | 36897 ft | 437 kts | 242° |
| 2026-05-07 14:41 | 41.63040 | -9.48845 | 36894 ft | 437 kts | 242° |
| 2026-05-07 14:41 | 41.59980 | -9.55860 | 36895 ft | 437 kts | 242° |
| 2026-05-07 14:42 | 41.56912 | -9.62879 | 36897 ft | 437 kts | 242° |